Ana Sayfa
METAR-TAF:

METAR-TAF

Havaalanları :

Sallisaw, Oklahoma, Amerika Birleşik Devletleri

Enlem: 35-26-17N, Boylam: 094-48-10W, yükseklik: 161 m

Güncel hava durumu gözlemi

Rapor saat 10:35 UTC de 28 dakika önce yapıldı.
Rüzgar doğudan 7 kt
Sıcaklık 0°C
Nem 93%
Basınç 1025 hPa
Görüş mesafesi: 1.2 km
400 ft yükseklikte çok bulutlu
kar

METAR: KJSV 221035Z AUTO 10007KT 3/4SM SN OVC004 00/M01 A3026 RMK AO2

Saat: 05:03 (11:03 UTC)


TAF: eksik

4.000'den fazla havaalanı için hava durumu gözlemleri ve tahminleri (METAR ve TAF raporları).

Kullanılabilir istasyonlar harita üzerinde sarı ve kırmızı noktalarla gösterilir.

İstasyonun adını görmek için fareyi noktanın üzerinde gezdirin.

Sonrasında hava gözlem ve tahminlerini görmek için tıklayın.

Haritayı değiştirmek için: yaklaştırmak için siyah artı işaretli yeşil düğmeye ve uzaklaştırmak için de eksi işaretli düğmeye hızla tıklayın; bitişik haritalar için yeşil okları kullanın.


METAR-TAF: